Time;durP1;ratioP1;P1;durP2;ratioP2;P2;SDS_P1;SDS_P2;PMS_P1;PMS_P2;Temp;Humidity;BMP_temperature;BMP_pressure;BME280_temperature;BME280_humidity;BME280_pressure;Samples;Min_cycle;Max_cycle;Signal;HPM_P1;HPM_P2
2022/06/08 00:01:53;;;;;;;3.28;1.45;;;;;;;13.17;100.00;98473.06;5008888;28;20029;-65
2022/06/08 00:04:22;;;;;;;2.38;1.40;;;;;;;13.23;100.00;98471.31;5010892;28;20030;-65
2022/06/08 00:06:48;;;;;;;2.57;1.40;;;;;;;13.30;100.00;98464.75;5009840;28;20052;-64
2022/06/08 00:09:13;;;;;;;5.65;1.60;;;;;;;13.28;100.00;98464.19;5009387;28;20108;-64
2022/06/08 00:11:39;;;;;;;3.67;1.70;;;;;;;13.35;100.00;98461.38;5008723;28;20121;-63
2022/06/08 00:14:04;;;;;;;3.33;1.58;;;;;;;13.56;100.00;98466.28;5006705;28;20079;-64
2022/06/08 00:16:30;;;;;;;5.15;1.38;;;;;;;13.48;100.00;98457.66;5010952;28;20080;-64
2022/06/08 00:18:55;;;;;;;3.17;1.23;;;;;;;13.42;100.00;98458.56;5011676;28;20030;-64
2022/06/08 00:21:20;;;;;;;1.83;1.27;;;;;;;13.38;100.00;98461.72;5010778;28;20022;-64
2022/06/08 00:23:46;;;;;;;5.68;1.38;;;;;;;13.36;100.00;98458.44;5008488;28;20036;-64
2022/06/08 00:26:12;;;;;;;2.33;1.42;;;;;;;13.33;100.00;98456.16;5007348;28;20049;-64
2022/06/08 00:28:37;;;;;;;2.78;1.52;;;;;;;13.32;100.00;98450.97;5011124;28;20033;-64
2022/06/08 00:31:03;;;;;;;4.88;1.42;;;;;;;13.38;100.00;98456.28;5006344;28;20040;-64
2022/06/08 00:33:28;;;;;;;2.20;1.30;;;;;;;13.36;100.00;98447.56;5005701;28;20500;-64
2022/06/08 00:35:54;;;;;;;1.38;0.95;;;;;;;13.33;100.00;98450.72;5007119;28;20490;-65
2022/06/08 00:38:19;;;;;;;2.55;1.50;;;;;;;13.34;100.00;98449.69;5007400;28;20023;-64
2022/06/08 00:41:05;;;;;;;5.63;1.30;;;;;;;13.27;100.00;98429.91;5012520;28;20535;-64
2022/06/08 00:43:31;;;;;;;2.80;1.58;;;;;;;13.42;100.00;98445.00;5004616;28;20057;-64
2022/06/08 00:45:57;;;;;;;2.08;1.33;;;;;;;13.37;100.00;98448.38;5008528;28;22005;-64
2022/06/08 00:48:29;;;;;;;4.35;1.35;;;;;;;13.29;100.00;98438.66;5011824;28;20049;-64
2022/06/08 00:50:55;;;;;;;3.40;1.38;;;;;;;13.20;100.00;98437.28;5006195;28;20369;-64
2022/06/08 00:53:29;;;;;;;1.67;1.40;;;;;;;13.21;100.00;98447.09;5011661;28;20030;-64
2022/06/08 00:55:58;;;;;;;1.95;1.45;;;;;;;13.29;100.00;98435.13;5009810;28;20578;-64
2022/06/08 00:58:27;;;;;;;2.72;1.42;;;;;;;13.37;100.00;98438.34;5008662;28;20025;-64
2022/06/08 01:00:53;;;;;;;3.05;1.75;;;;;;;13.54;100.00;98435.78;5005592;28;20080;-64
2022/06/08 01:03:19;;;;;;;2.33;1.58;;;;;;;13.46;100.00;98410.84;5012991;28;20443;-64
2022/06/08 01:05:53;;;;;;;4.40;1.50;;;;;;;13.63;100.00;98425.44;5010616;28;20030;-64
2022/06/08 01:08:21;;;;;;;3.40;1.48;;;;;;;13.52;100.00;98407.22;5011634;28;20072;-64
2022/06/08 01:10:50;;;;;;;2.47;1.40;;;;;;;13.58;100.00;98434.28;5010097;28;20037;-64
2022/06/08 01:13:16;;;;;;;1.85;1.40;;;;;;;13.52;100.00;98424.34;5006763;28;20438;-64
2022/06/08 01:15:42;;;;;;;3.67;1.65;;;;;;;13.54;100.00;98437.69;5009186;28;20037;-64
2022/06/08 01:18:09;;;;;;;2.28;1.60;;;;;;;13.45;100.00;98425.50;5010964;28;20033;-64
2022/06/08 01:20:35;;;;;;;3.17;1.77;;;;;;;13.53;100.00;98430.59;5004607;28;20034;-64
2022/06/08 01:23:01;;;;;;;2.33;1.50;;;;;;;13.46;100.00;98408.13;5010654;28;20044;-63
2022/06/08 01:25:39;;;;;;;2.80;1.58;;;;;;;13.50;100.00;98421.03;5006144;28;20038;-64
2022/06/08 01:28:04;;;;;;;3.78;1.85;;;;;;;13.44;100.00;98418.38;5009396;28;20479;-64
2022/06/08 01:30:43;;;;;;;5.57;1.73;;;;;;;13.45;100.00;98417.34;5008485;28;20037;-64
2022/06/08 01:33:33;;;;;;;2.55;1.40;;;;;;;13.09;100.00;98356.59;5007870;28;21293;-64
2022/06/08 01:36:48;;;;;;;4.35;1.73;;;;;;;13.39;100.00;98419.09;5009398;28;20061;-63
2022/06/08 01:39:53;;;;;;;3.08;1.50;;;;;;;13.38;100.00;98407.38;4940998;28;20028;-64
2022/06/08 01:42:25;;;;;;;2.58;1.60;;;;;;;13.29;100.00;98408.78;4947205;28;20462;-64
2022/06/08 01:48:00;;;;;;;2.13;1.33;;;;;;;13.11;100.00;98398.75;5002594;28;20045;-64
2022/06/08 01:50:37;;;;;;;3.00;1.80;;;;;;;13.07;100.00;98399.44;5005096;28;20480;-64
2022/06/08 01:53:13;;;;;;;3.15;1.80;;;;;;;12.96;100.00;98397.50;5007082;28;20025;-64
2022/06/08 01:55:50;;;;;;;2.58;1.48;;;;;;;12.86;100.00;98393.47;5004562;28;20391;-64
2022/06/08 01:58:39;;;;;;;3.15;1.58;;;;;;;12.82;100.00;98394.13;5004383;28;20018;-64
2022/06/08 02:01:33;;;;;;;2.42;1.70;;;;;;;12.76;100.00;98393.16;4981615;28;20039;-64
2022/06/08 02:04:23;;;;;;;2.90;1.40;;;;;;;12.74;100.00;98370.84;5011458;28;20045;-64
2022/06/08 02:07:02;;;;;;;2.15;1.40;;;;;;;12.88;100.00;98387.78;5008404;28;20083;-63
2022/06/08 02:09:27;;;;;;;4.37;1.50;;;;;;;12.89;100.00;98386.72;5010300;28;20033;-64
2022/06/08 02:12:01;;;;;;;2.08;1.33;;;;;;;12.89;100.00;98386.72;5007877;28;20075;-64
2022/06/08 02:14:34;;;;;;;2.33;1.52;;;;;;;12.86;100.00;98387.19;5004720;28;20032;-64
2022/06/08 02:17:07;;;;;;;2.13;1.33;;;;;;;12.89;100.00;98386.72;5001369;28;20034;-64
2022/06/08 02:20:01;;;;;;;4.80;1.63;;;;;;;12.82;100.00;98381.38;5010234;28;20025;-64
2022/06/08 02:22:31;;;;;;;4.28;1.67;;;;;;;12.85;100.00;98380.91;5004732;28;20124;-64
2022/06/08 02:25:12;;;;;;;1.48;1.20;;;;;;;12.92;100.00;98381.66;5009772;28;20087;-64
2022/06/08 02:27:48;;;;;;;3.83;1.30;;;;;;;12.96;100.00;98379.31;5009039;28;20061;-65
2022/06/08 02:30:21;;;;;;;2.08;1.30;;;;;;;13.03;100.00;98380.06;5009578;28;20380;-64
2022/06/08 02:35:46;;;;;;;1.83;1.20;;;;;;;12.88;100.00;98374.19;5005864;28;20032;-63
2022/06/08 02:38:17;;;;;;;2.75;1.50;;;;;;;12.81;100.00;98362.59;5008712;28;20026;-64
2022/06/08 02:40:48;;;;;;;2.05;1.50;;;;;;;12.78;100.00;98369.31;5006903;28;20026;-64
2022/06/08 02:43:31;;;;;;;5.65;1.73;;;;;;;12.78;100.00;98371.19;5007165;28;20026;-64
2022/06/08 02:46:06;;;;;;;5.57;1.73;;;;;;;12.79;100.00;98372.88;5006596;28;20029;-64
2022/06/08 02:48:32;;;;;;;5.35;1.65;;;;;;;12.71;100.00;98363.16;5005784;28;20064;-64
2022/06/08 02:50:58;;;;;;;2.63;1.45;;;;;;;12.61;100.00;98363.69;5009581;28;20368;-64
2022/06/08 02:53:26;;;;;;;6.22;1.90;;;;;;;12.55;100.00;98370.03;5008518;28;20029;-64
2022/06/08 02:56:21;;;;;;;4.25;1.73;;;;;;;12.58;100.00;98366.84;5005571;28;20116;-65
2022/06/08 02:58:59;;;;;;;4.00;1.40;;;;;;;12.31;100.00;98341.91;5009289;28;20036;-64
2022/06/08 03:01:35;;;;;;;5.22;1.80;;;;;;;12.50;100.00;98368.00;5011397;28;20026;-64
2022/06/08 03:04:07;;;;;;;4.70;1.70;;;;;;;12.44;100.00;98360.75;5001376;28;20034;-63
2022/06/08 03:06:42;;;;;;;2.65;1.58;;;;;;;12.59;100.00;98354.09;5001119;28;20026;-64
2022/06/08 03:09:11;;;;;;;3.88;1.25;;;;;;;12.53;100.00;98357.75;5007274;28;20418;-64
2022/06/08 03:11:43;;;;;;;1.48;1.33;;;;;;;12.48;100.00;98351.09;5003327;28;20021;-64
2022/06/08 03:14:11;;;;;;;1.60;1.25;;;;;;;12.55;100.00;98351.03;5008672;28;20030;-64
2022/06/08 03:16:59;;;;;;;5.78;1.92;;;;;;;12.55;100.00;98347.47;5009418;28;20033;-63
2022/06/08 03:19:27;;;;;;;5.32;1.90;;;;;;;12.48;100.00;98353.81;5006902;28;20100;-64
2022/06/08 03:21:54;;;;;;;2.83;1.50;;;;;;;12.50;100.00;98343.56;5007181;28;20040;-64
2022/06/08 03:24:21;;;;;;;2.75;1.70;;;;;;;12.47;100.00;98344.03;5010036;28;20033;-64
2022/06/08 03:26:50;;;;;;;3.20;1.35;;;;;;;12.57;100.00;98343.47;5007545;28;20037;-64
2022/06/08 03:29:15;;;;;;;3.58;1.35;;;;;;;12.57;100.00;98337.22;5009567;28;20022;-64
2022/06/08 03:31:41;;;;;;;3.55;1.60;;;;;;;12.58;100.00;98339.72;5004957;28;20483;-64
2022/06/08 03:34:06;;;;;;;3.40;1.63;;;;;;;12.59;100.00;98337.84;5014723;28;20024;-64
2022/06/08 03:36:31;;;;;;;3.75;1.52;;;;;;;12.64;100.00;98340.69;5009963;28;20070;-64
2022/06/08 03:38:57;;;;;;;2.60;1.75;;;;;;;12.54;100.00;98318.69;5005552;28;20030;-64
2022/06/08 03:41:22;;;;;;;3.72;1.52;;;;;;;12.64;100.00;98330.66;5010131;28;20109;-68
2022/06/08 03:43:47;;;;;;;1.65;1.40;;;;;;;12.76;100.00;98346.16;5011987;28;20361;-69
2022/06/08 03:46:15;;;;;;;5.07;2.00;;;;;;;12.66;100.00;98323.13;5009414;28;20033;-68
2022/06/08 03:48:43;;;;;;;3.53;1.50;;;;;;;12.63;100.00;98312.72;5011628;28;20029;-70
2022/06/08 03:51:12;;;;;;;2.15;1.58;;;;;;;12.80;100.00;98337.34;5011538;28;20033;-72
2022/06/08 03:53:51;;;;;;;4.53;1.63;;;;;;;12.83;100.00;98341.47;5010641;28;20038;-73
2022/06/08 03:56:19;;;;;;;3.92;1.38;;;;;;;12.80;100.00;98329.19;5007913;28;20034;-70
2022/06/08 03:58:45;;;;;;;7.68;1.65;;;;;;;12.78;100.00;98315.00;5011029;28;20036;-67
2022/06/08 04:01:11;;;;;;;3.35;1.60;;;;;;;13.03;100.00;98333.06;5006296;28;20037;-70
2022/06/08 04:03:37;;;;;;;5.88;2.00;;;;;;;13.18;100.00;98329.91;5011214;28;20053;-70
2022/06/08 04:06:02;;;;;;;3.05;1.50;;;;;;;13.21;100.00;98330.31;5010868;28;20061;-69
2022/06/08 04:08:28;;;;;;;2.83;1.60;;;;;;;13.24;100.00;98320.84;5011586;28;20033;-71
2022/06/08 04:10:54;;;;;;;2.75;1.55;;;;;;;13.32;100.00;98320.56;5011314;28;20028;-67
2022/06/08 04:13:19;;;;;;;2.35;1.40;;;;;;;13.51;100.00;98330.25;5016340;28;20132;-72
2022/06/08 04:15:45;;;;;;;2.20;1.13;;;;;;;13.73;100.00;98332.44;5015839;28;20029;-71
2022/06/08 04:18:16;;;;;;;2.55;1.40;;;;;;;13.95;100.00;98324.50;5012310;28;20064;-69
2022/06/08 04:20:44;;;;;;;3.72;1.48;;;;;;;14.05;100.00;98334.81;5011264;28;20029;-70
2022/06/08 04:23:10;;;;;;;2.25;1.10;;;;;;;13.98;100.00;98311.25;5010448;28;20069;-72
2022/06/08 04:25:38;;;;;;;4.15;1.33;;;;;;;14.23;100.00;98340.94;5014365;28;20034;-65
2022/06/08 04:28:04;;;;;;;2.45;1.60;;;;;;;14.15;100.00;98314.09;5012824;28;20442;-67
2022/06/08 04:30:29;;;;;;;3.53;1.15;;;;;;;14.34;100.00;98338.44;5010506;28;20089;-65
2022/06/08 04:32:55;;;;;;;3.35;1.50;;;;;;;14.44;100.00;98338.66;5012757;28;20040;-71
2022/06/08 04:35:20;;;;;;;4.68;1.25;;;;;;;14.39;100.00;98336.66;5014490;28;20105;-73
2022/06/08 04:37:46;;;;;;;2.80;1.40;;;;;;;14.58;100.00;98337.34;5012689;28;20029;-70
2022/06/08 04:40:15;;;;;;;1.95;1.20;;;;;;;14.85;100.00;98336.78;5006353;28;20038;-66
2022/06/08 04:42:41;;;;;;;4.68;1.40;;;;;;;15.05;100.00;98339.91;5013803;28;20103;-70
2022/06/08 04:45:07;;;;;;;2.22;1.10;;;;;;;15.12;100.00;98316.06;5011939;28;20026;-72
2022/06/08 04:47:33;;;;;;;2.72;1.20;;;;;;;15.28;100.00;98333.53;5011435;28;20033;-67
2022/06/08 04:49:58;;;;;;;2.53;1.33;;;;;;;15.30;100.00;98317.75;5008364;28;20503;-65
2022/06/08 04:52:24;;;;;;;1.75;1.10;;;;;;;15.47;100.00;98330.56;5011072;28;20029;-65
2022/06/08 04:54:50;;;;;;;2.50;1.17;;;;;;;15.50;100.00;98320.00;5008395;28;20030;-65
2022/06/08 04:57:15;;;;;;;13.13;1.33;;;;;;;15.48;100.00;98338.50;5004585;28;20030;-66
2022/06/08 04:59:41;;;;;;;2.00;1.23;;;;;;;15.46;100.00;98332.47;5006133;28;20029;-66
2022/06/08 05:02:07;;;;;;;4.40;1.38;;;;;;;15.46;100.00;98329.75;5007883;28;20399;-68
2022/06/08 05:04:33;;;;;;;2.65;1.30;;;;;;;15.42;100.00;98333.22;5008337;28;20025;-67
2022/06/08 05:06:58;;;;;;;2.70;1.17;;;;;;;15.49;100.00;98331.16;5013642;28;20080;-67
2022/06/08 05:09:24;;;;;;;2.55;1.23;;;;;;;15.57;100.00;98334.28;5007607;28;20026;-67
2022/06/08 05:11:49;;;;;;;2.38;1.25;;;;;;;15.72;100.00;98346.56;5006850;28;20814;-67
2022/06/08 05:14:14;;;;;;;2.72;1.10;;;;;;;15.66;100.00;98348.34;5011007;28;20022;-67
2022/06/08 05:16:40;;;;;;;3.38;1.10;;;;;;;15.66;100.00;98342.88;5009983;28;20404;-68
2022/06/08 05:19:05;;;;;;;2.75;1.30;;;;;;;15.67;100.00;98343.72;5008514;28;20033;-69
2022/06/08 05:21:30;;;;;;;3.22;1.17;;;;;;;15.71;100.00;98336.72;5012505;28;20037;-67
2022/06/08 05:23:56;;;;;;;2.13;1.08;;;;;;;15.62;100.00;98330.00;5011687;28;20044;-70
2022/06/08 05:26:21;;;;;;;7.95;1.20;;;;;;;15.83;100.00;98337.47;5007433;28;20030;-69
2022/06/08 05:28:46;;;;;;;2.78;0.90;;;;;;;15.98;100.00;98323.22;5008075;28;20022;-67
2022/06/08 05:31:12;;;;;;;9.27;1.60;;;;;;;15.93;100.00;98326.72;5008393;28;20486;-67
2022/06/08 05:33:38;;;;;;;2.97;1.15;;;;;;;15.97;100.00;98337.94;5013209;28;20032;-66
2022/06/08 05:36:05;;;;;;;3.22;1.20;;;;;;;16.03;100.00;98333.38;5007710;28;20080;-70
2022/06/08 05:38:30;;;;;;;2.85;1.00;;;;;;;16.07;100.00;98313.53;5010760;28;20068;-70
2022/06/08 05:40:56;;;;;;;2.55;1.00;;;;;;;16.39;100.00;98332.00;5008701;28;20057;-68
2022/06/08 05:43:22;;;;;;;2.30;1.10;;;;;;;16.39;100.00;98321.88;5007726;28;20475;-70
2022/06/08 05:45:48;;;;;;;3.60;1.17;;;;;;;16.51;100.00;98318.22;5011802;28;20026;-68
2022/06/08 05:48:14;;;;;;;4.40;1.40;;;;;;;16.66;100.00;98321.13;5010833;28;20056;-68
2022/06/08 05:50:40;;;;;;;3.60;1.58;;;;;;;16.73;100.00;98327.22;5010185;28;20053;-65
2022/06/08 05:53:06;;;;;;;5.25;1.02;;;;;;;16.75;100.00;98321.53;5010665;28;20431;-67
2022/06/08 05:55:32;;;;;;;2.17;1.00;;;;;;;16.89;100.00;98319.25;5005437;28;20072;-66
2022/06/08 05:57:58;;;;;;;2.67;1.10;;;;;;;17.09;100.00;98298.44;5011532;28;20029;-66
2022/06/08 06:00:26;;;;;;;4.30;1.40;;;;;;;17.23;100.00;98308.94;5012533;28;20024;-66
2022/06/08 06:02:52;;;;;;;6.70;1.00;;;;;;;17.45;100.00;98326.13;5010335;28;20037;-66
2022/06/08 06:05:24;;;;;;;4.55;1.30;;;;;;;17.41;100.00;98310.47;5011506;28;20030;-66
2022/06/08 06:07:50;;;;;;;3.92;1.20;;;;;;;17.52;100.00;98320.41;5010289;28;20034;-65
2022/06/08 06:10:16;;;;;;;3.22;1.30;;;;;;;17.69;100.00;98318.38;5006995;28;20113;-65
2022/06/08 06:12:41;;;;;;;3.78;1.02;;;;;;;17.64;100.00;98325.72;5007814;28;20029;-67
2022/06/08 06:15:09;;;;;;;6.25;1.40;;;;;;;17.47;100.00;98320.38;5007353;28;20950;-70
2022/06/08 06:17:34;;;;;;;5.70;1.30;;;;;;;17.42;100.00;98328.53;4997516;28;20029;-66
2022/06/08 06:19:59;;;;;;;4.82;1.42;;;;;;;17.41;100.00;98305.84;5008820;28;20026;-66
2022/06/08 06:22:25;;;;;;;5.28;1.75;;;;;;;17.63;100.00;98308.50;5005690;28;20100;-66
2022/06/08 06:24:51;;;;;;;5.28;1.30;;;;;;;17.49;100.00;98274.44;4998930;28;20061;-64
2022/06/08 06:27:16;;;;;;;4.00;1.15;;;;;;;17.75;100.00;98305.56;5003810;28;20026;-65
2022/06/08 06:29:42;;;;;;;2.75;1.38;;;;;;;17.87;100.00;98297.22;5012527;28;20419;-65
2022/06/08 06:32:15;;;;;;;4.45;1.20;;;;;;;18.01;100.00;98303.88;5004327;28;20038;-67
2022/06/08 06:34:40;;;;;;;3.67;1.00;;;;;;;18.25;100.00;98303.44;5010938;28;20036;-64
2022/06/08 06:37:05;;;;;;;5.65;1.15;;;;;;;18.24;100.00;98293.59;5012037;28;20108;-67
2022/06/08 06:39:31;;;;;;;2.75;1.02;;;;;;;18.61;99.49;98297.06;5012192;28;20022;-67
2022/06/08 06:41:58;;;;;;;5.68;1.35;;;;;;;18.85;96.46;98287.56;5001708;28;20032;-68
2022/06/08 06:44:24;;;;;;;2.58;1.13;;;;;;;19.17;92.39;98290.09;5001895;28;20038;-65
2022/06/08 06:46:50;;;;;;;2.75;0.82;;;;;;;19.59;89.68;98300.81;4999609;28;20030;-66
2022/06/08 06:49:15;;;;;;;4.38;1.00;;;;;;;19.95;84.47;98297.28;5006448;28;20026;-68
2022/06/08 06:51:41;;;;;;;3.35;1.13;;;;;;;20.15;81.95;98264.28;5001910;28;20030;-69
2022/06/08 06:54:09;;;;;;;4.57;1.02;;;;;;;20.91;76.75;98289.84;5010815;28;20105;-65
2022/06/08 06:56:35;;;;;;;2.88;0.88;;;;;;;21.88;70.88;98294.66;5012206;28;20034;-70
2022/06/08 06:59:01;;;;;;;2.92;1.02;;;;;;;22.60;62.57;98283.69;5011485;28;20037;-67
2022/06/08 07:01:27;;;;;;;5.50;0.88;;;;;;;23.55;56.83;98280.97;5005361;28;20033;-67
2022/06/08 07:03:52;;;;;;;3.97;1.33;;;;;;;24.77;51.83;98282.66;5016076;28;20037;-67
2022/06/08 07:06:18;;;;;;;3.42;1.00;;;;;;;24.79;50.28;98277.63;5014359;28;20471;-73
2022/06/08 07:08:44;;;;;;;6.82;1.17;;;;;;;26.23;46.53;98259.19;5005273;28;20026;-66
2022/06/08 07:14:02;;;;;;;3.22;0.90;;;;;;;27.64;42.54;98273.84;5097876;27;20685;-61
2022/06/08 07:16:28;;;;;;;2.17;0.98;;;;;;;28.25;42.00;98265.38;5092922;28;20366;-64
2022/06/08 07:18:53;;;;;;;4.13;1.02;;;;;;;29.14;39.42;98239.53;5096585;28;20118;-63
2022/06/08 07:21:19;;;;;;;4.32;1.00;;;;;;;29.49;38.86;98252.00;5106376;28;20024;-62
2022/06/08 07:23:45;;;;;;;2.95;0.77;;;;;;;29.19;38.59;98247.69;5105981;28;20427;-65
2022/06/08 07:26:11;;;;;;;8.02;0.98;;;;;;;30.49;36.49;98228.78;5097737;28;20075;-64
2022/06/08 07:28:37;;;;;;;2.88;0.80;;;;;;;30.85;36.16;98229.94;5090894;28;20020;-66
2022/06/08 07:31:03;;;;;;;3.45;0.90;;;;;;;31.50;34.76;98239.09;5098737;28;20032;-65
2022/06/08 07:33:28;;;;;;;3.35;1.17;;;;;;;30.93;35.44;98237.38;5094503;28;20125;-64
2022/06/08 07:35:54;;;;;;;3.10;0.80;;;;;;;31.19;35.37;98232.19;5091829;28;20547;-65
2022/06/08 07:38:20;;;;;;;3.85;0.82;;;;;;;31.05;35.36;98222.56;5092077;28;20031;-67
2022/06/08 07:40:46;;;;;;;2.30;0.75;;;;;;;30.91;35.14;98220.16;5092198;28;20066;-67
2022/06/08 07:43:11;;;;;;;3.80;0.98;;;;;;;30.77;34.75;98226.09;5089900;28;20031;-67
2022/06/08 07:45:36;;;;;;;5.03;0.73;;;;;;;31.06;34.45;98219.44;5088963;28;20035;-66
2022/06/08 07:50:46;;;;;;;5.63;0.98;;;;;;;31.39;33.96;98202.47;5089395;28;20032;-67
2022/06/08 07:53:11;;;;;;;3.90;0.80;;;;;;;31.55;33.33;98202.50;5087094;28;20031;-67
2022/06/08 07:55:37;;;;;;;4.03;0.70;;;;;;;30.76;33.93;98210.50;5092931;28;20036;-62
2022/06/08 07:58:03;;;;;;;5.18;1.23;;;;;;;31.21;33.15;98201.91;5094701;28;20028;-62
2022/06/08 08:00:29;;;;;;;2.80;0.75;;;;;;;30.85;33.26;98207.59;5100388;28;20488;-63
2022/06/08 08:02:55;;;;;;;2.15;0.80;;;;;;;31.75;33.10;98200.63;5088615;28;20032;-64
2022/06/08 08:05:22;;;;;;;5.75;1.00;;;;;;;30.35;35.05;98193.66;5089691;28;20109;-71
2022/06/08 08:07:48;;;;;;;4.13;0.70;;;;;;;31.82;33.89;98186.03;5089424;28;20028;-60
2022/06/08 08:10:16;;;;;;;6.32;1.00;;;;;;;32.18;32.76;98190.59;5095545;28;20110;-65
2022/06/08 08:12:41;;;;;;;5.38;1.25;;;;;;;32.27;32.42;98177.22;5092634;28;20048;-66
2022/06/08 08:15:08;;;;;;;1.38;0.63;;;;;;;32.64;32.88;98178.91;5100287;28;20104;-65
2022/06/08 08:17:34;;;;;;;3.47;0.80;;;;;;;31.39;32.78;98188.47;5107486;28;20500;-62
2022/06/08 08:19:59;;;;;;;2.55;0.82;;;;;;;32.17;31.54;98188.16;5108616;28;20063;-70
2022/06/08 08:22:24;;;;;;;3.00;0.60;;;;;;;32.40;30.57;98175.13;5097651;28;20055;-64
2022/06/08 08:24:50;;;;;;;2.28;0.60;;;;;;;32.90;31.37;98172.66;5087986;28;20037;-66
2022/06/08 08:27:15;;;;;;;6.47;0.90;;;;;;;33.19;30.49;98165.72;5094650;28;20028;-65
2022/06/08 08:29:40;;;;;;;3.97;0.80;;;;;;;32.86;31.35;98172.59;5086532;28;20052;-67
2022/06/08 08:32:09;;;;;;;6.45;1.02;;;;;;;32.57;30.56;98162.75;5074759;28;20082;-65
2022/06/08 08:34:34;;;;;;;3.97;0.85;;;;;;;33.48;30.38;98169.06;5079723;28;20028;-71
2022/06/08 08:37:00;;;;;;;7.85;0.80;;;;;;;33.43;30.77;98160.97;5092336;28;20030;-72
2022/06/08 08:39:26;;;;;;;2.78;0.73;;;;;;;34.20;28.28;98169.22;5090456;28;20032;-71
2022/06/08 08:44:40;;;;;;;2.38;0.88;;;;;;;31.20;31.94;98158.38;5077900;28;20552;-67
2022/06/08 08:47:24;;;;;;;1.73;0.60;;;;;;;31.64;32.38;98149.19;5089537;28;20032;-67
2022/06/08 08:49:55;;;;;;;2.05;0.52;;;;;;;32.29;31.43;98151.66;5085917;28;20017;-72
2022/06/08 08:52:39;;;;;;;2.80;0.88;;;;;;;32.90;30.08;98150.25;5083603;28;20020;-66
2022/06/08 08:55:29;;;;;;;4.80;0.73;;;;;;;32.75;30.51;98146.34;5092380;28;20477;-67
2022/06/08 08:58:04;;;;;;;2.63;0.47;;;;;;;32.67;29.70;98152.94;5082371;28;20025;-69
2022/06/08 09:00:43;;;;;;;4.28;0.95;;;;;;;32.95;30.03;98125.56;5084157;28;20059;-67
2022/06/08 09:03:30;;;;;;;2.97;0.50;;;;;;;33.06;29.38;98130.59;5083484;28;20036;-69
2022/06/08 09:06:00;;;;;;;1.55;0.30;;;;;;;31.89;30.75;98124.69;5083439;28;20028;-64
2022/06/08 09:08:25;;;;;;;3.53;0.80;;;;;;;31.52;30.46;98144.50;5087985;28;20106;-67
2022/06/08 09:10:54;;;;;;;1.52;0.52;;;;;;;32.53;29.68;98123.44;5074690;28;20931;-67
2022/06/08 09:13:24;;;;;;;2.58;0.70;;;;;;;31.44;31.68;98123.13;5077692;28;20110;-64
2022/06/08 09:15:56;;;;;;;2.15;0.52;;;;;;;30.58;31.83;98131.78;5099308;28;20099;-71
2022/06/08 09:18:21;;;;;;;3.85;0.88;;;;;;;32.05;30.99;98125.50;5104790;28;20020;-63
2022/06/08 09:20:47;;;;;;;2.93;0.73;;;;;;;32.48;30.22;98098.53;5084795;28;20031;-63
2022/06/08 09:23:42;;;;;;;4.47;0.60;;;;;;;31.11;30.69;98117.78;5073991;28;20293;-64
2022/06/08 09:26:13;;;;;;;3.50;0.70;;;;;;;30.63;31.90;98089.66;5081227;28;20051;-64
2022/06/08 09:28:41;;;;;;;2.72;0.80;;;;;;;29.17;35.15;98086.44;5083721;28;20020;-63
2022/06/08 09:31:26;;;;;;;5.40;0.95;;;;;;;27.40;37.87;98110.41;5080605;28;20048;-62
2022/06/08 09:34:15;;;;;;;1.88;0.40;;;;;;;27.92;37.00;98110.25;5085215;28;20032;-65
2022/06/08 09:36:42;;;;;;;5.32;0.85;;;;;;;29.44;33.43;98078.59;5079843;28;20465;-64
2022/06/08 09:39:20;;;;;;;5.35;0.55;;;;;;;30.59;31.92;98085.94;5075189;28;20060;-66
2022/06/08 09:41:50;;;;;;;2.33;0.50;;;;;;;31.13;30.88;98093.91;5076102;28;20025;-67
2022/06/08 09:44:20;;;;;;;3.30;0.73;;;;;;;31.64;30.08;98090.47;5079754;28;20035;-63
2022/06/08 09:52:34;;;;;;;4.78;0.80;;;;;;;30.77;31.59;98076.09;5075251;28;20039;-64
2022/06/08 09:55:15;;;;;;;3.75;0.68;;;;;;;31.35;30.64;98081.31;5074766;28;20040;-65
2022/06/08 09:58:02;;;;;;;4.03;0.60;;;;;;;32.10;29.45;98071.25;5075273;28;20073;-66
2022/06/08 10:00:43;;;;;;;1.85;0.63;;;;;;;31.28;30.60;98069.94;5078695;28;20036;-71
2022/06/08 10:03:36;;;;;;;1.75;0.50;;;;;;;31.78;29.65;98062.03;5073532;28;20024;-64
2022/06/08 10:06:21;;;;;;;6.30;0.70;;;;;;;31.30;30.34;98058.41;5077403;28;20089;-69
2022/06/08 10:08:49;;;;;;;4.80;0.55;;;;;;;32.84;29.16;98059.28;5081714;28;20104;-66
2022/06/08 10:11:47;;;;;;;2.95;0.70;;;;;;;33.71;28.04;98052.13;5083725;28;20034;-65
2022/06/08 10:14:18;;;;;;;2.60;0.43;;;;;;;32.90;28.68;98046.59;5082471;28;20047;-68
2022/06/08 10:16:55;;;;;;;9.80;0.93;;;;;;;30.13;32.25;98057.41;5073820;28;20164;-64
2022/06/08 10:19:30;;;;;;;1.25;0.50;;;;;;;28.55;34.87;98049.16;5068130;28;20077;-69
2022/06/08 10:21:58;;;;;;;4.00;0.60;;;;;;;26.39;37.60;98059.88;5076157;28;20028;-64
2022/06/08 10:24:27;;;;;;;5.47;0.80;;;;;;;26.66;37.82;98058.75;5085664;28;20059;-63
2022/06/08 10:27:06;;;;;;;5.43;1.08;;;;;;;26.36;38.53;98046.66;5073808;28;20040;-65
2022/06/08 10:29:43;;;;;;;0.70;0.35;;;;;;;26.71;36.97;98049.44;5084479;28;20106;-64
2022/06/08 10:32:11;;;;;;;5.53;0.82;;;;;;;27.34;36.00;98036.75;5071741;28;20036;-64
2022/06/08 10:34:37;;;;;;;1.92;0.60;;;;;;;27.71;35.75;98037.06;5055902;22;20076;-66
2022/06/08 10:37:15;;;;;;;3.17;0.60;;;;;;;28.28;34.99;98033.81;4992610;28;20467;-67
2022/06/08 10:39:43;;;;;;;4.90;0.70;;;;;;;29.15;33.98;98015.53;4988301;28;20026;-68
2022/06/08 10:44:58;;;;;;;6.28;0.60;;;;;;;29.63;32.50;98013.94;4994212;28;20044;-66
2022/06/08 10:47:39;;;;;;;2.55;0.57;;;;;;;28.19;34.42;98019.13;4985989;28;20022;-67
2022/06/08 10:50:04;;;;;;;5.47;0.50;;;;;;;27.85;34.75;98012.69;4989101;28;20037;-67
2022/06/08 10:52:47;;;;;;;4.50;0.70;;;;;;;26.75;37.08;98012.41;4990397;28;20034;-67
2022/06/08 10:55:18;;;;;;;3.63;0.88;;;;;;;29.31;34.00;97998.94;4989093;28;20372;-69
2022/06/08 10:57:49;;;;;;;2.63;0.52;;;;;;;29.14;34.31;97997.19;4989008;28;20030;-67
2022/06/08 11:00:20;;;;;;;2.58;0.60;;;;;;;27.82;35.09;98002.22;4979662;28;21022;-71
2022/06/08 11:02:52;;;;;;;1.15;0.60;;;;;;;27.82;35.15;97993.06;4983977;28;20070;-69
2022/06/08 11:05:41;;;;;;;2.83;0.50;;;;;;;27.86;35.27;97996.81;4990587;28;20146;-73
2022/06/08 11:10:53;;;;;;;4.68;0.70;;;;;;;31.43;31.02;97978.91;5100474;27;20351;-70
2022/06/08 11:13:27;;;;;;;3.95;0.60;;;;;;;32.27;29.58;97964.47;5101319;28;20119;-68
2022/06/08 11:15:53;;;;;;;3.10;0.60;;;;;;;30.55;31.44;97973.34;5076492;28;20024;-69
2022/06/08 11:18:36;;;;;;;3.00;0.82;;;;;;;30.42;31.74;97966.16;5083307;28;22617;-69
2022/06/08 11:21:15;;;;;;;4.80;0.68;;;;;;;28.35;33.68;97964.53;5080168;28;20029;-69
2022/06/08 11:23:51;;;;;;;1.67;0.50;;;;;;;26.21;36.93;97973.91;5072565;28;20113;-69
2022/06/08 11:26:19;;;;;;;3.80;0.82;;;;;;;25.79;38.19;97976.28;5085275;28;20386;-69
2022/06/08 11:28:48;;;;;;;5.53;0.80;;;;;;;28.08;34.78;97968.66;5076658;28;20029;-70
2022/06/08 11:31:28;;;;;;;5.00;0.60;;;;;;;28.44;34.77;97966.44;5077351;28;20032;-70
2022/06/08 11:34:12;;;;;;;0.68;0.40;;;;;;;31.44;31.12;97960.97;5071538;28;20020;-77
2022/06/08 11:36:49;;;;;;;2.35;0.50;;;;;;;30.05;31.15;97960.69;5073602;28;20051;-71
2022/06/08 11:39:34;;;;;;;2.83;0.68;;;;;;;28.78;33.58;97951.34;5079589;28;20024;-73
2022/06/08 11:42:24;;;;;;;1.60;0.50;;;;;;;30.18;31.89;97948.31;5071556;28;20044;-72
2022/06/08 11:44:55;;;;;;;2.30;0.60;;;;;;;30.49;31.11;97942.06;5068659;28;20016;-72
2022/06/08 11:47:48;;;;;;;1.98;0.52;;;;;;;29.14;33.01;97949.84;5084601;28;20098;-72
2022/06/08 11:50:18;;;;;;;1.42;0.52;;;;;;;27.68;34.77;97943.25;5080756;28;20016;-72
2022/06/08 11:52:47;;;;;;;3.08;0.43;;;;;;;27.15;35.17;97939.94;5073278;28;20025;-72
2022/06/08 11:55:22;;;;;;;2.95;0.60;;;;;;;27.22;35.86;97943.03;5071830;28;20406;-71
2022/06/08 11:58:08;;;;;;;1.42;0.35;;;;;;;28.40;33.45;97942.06;5074319;28;20085;-72
2022/06/08 12:00:59;;;;;;;2.28;0.50;;;;;;;29.52;32.49;97934.72;5078315;28;20082;-71
2022/06/08 12:03:41;;;;;;;2.92;0.63;;;;;;;29.14;33.72;97931.16;5068101;28;20020;-69
2022/06/08 12:06:22;;;;;;;2.05;0.60;;;;;;;29.42;32.85;97936.84;5082948;28;20028;-73
2022/06/08 12:08:54;;;;;;;3.83;0.55;;;;;;;30.34;31.38;97940.88;5091306;28;20205;-72
2022/06/08 12:11:23;;;;;;;4.15;0.80;;;;;;;30.33;30.14;97938.44;5081859;28;20560;-72